Time;durP1;ratioP1;P1;durP2;ratioP2;P2;SDS_P1;SDS_P2;PMS_P1;PMS_P2;Temp;Humidity;BMP_temperature;BMP_pressure;BME280_temperature;BME280_humidity;BME280_pressure;Samples;Min_cycle;Max_cycle;Signal;HPM_P1;HPM_P2
2022/03/02 00:01:23;;;;;;;15.07;9.90;;;4.10;99.90;;;;;;6340855;22;20204;-85
2022/03/02 00:03:49;;;;;;;20.70;11.17;;;4.10;99.90;;;;;;6346900;22;20185;-86
2022/03/02 00:06:15;;;;;;;15.77;9.90;;;4.10;99.90;;;;;;6351866;22;20164;-85
2022/03/02 00:08:41;;;;;;;18.43;10.60;;;4.10;99.90;;;;;;6325208;22;20181;-85
2022/03/02 00:11:07;;;;;;;13.90;7.73;;;4.10;99.90;;;;;;6351585;22;20650;-85
2022/03/02 00:13:33;;;;;;;16.37;8.60;;;4.00;99.90;;;;;;6352076;22;20173;-85
2022/03/02 00:15:59;;;;;;;19.20;10.63;;;4.10;99.90;;;;;;6350033;22;20149;-86
2022/03/02 00:18:24;;;;;;;16.00;10.07;;;5.70;99.90;;;;;;6350990;22;20221;-85
2022/03/02 00:20:50;;;;;;;18.63;10.23;;;4.00;99.90;;;;;;6347665;22;20612;-84
2022/03/02 00:23:15;;;;;;;17.00;9.50;;;4.20;99.90;;;;;;6347588;22;20196;-85
2022/03/02 00:25:41;;;;;;;15.17;9.90;;;4.00;99.90;;;;;;6345563;22;20157;-85
2022/03/02 00:28:06;;;;;;;14.93;10.13;;;4.10;99.90;;;;;;6344828;22;20189;-84
2022/03/02 00:30:32;;;;;;;18.10;10.23;;;4.10;99.90;;;;;;6349002;22;20187;-86
2022/03/02 00:32:59;;;;;;;14.30;9.70;;;4.00;99.90;;;;;;6350506;22;20601;-85
2022/03/02 00:35:25;;;;;;;20.47;10.17;;;3.90;99.90;;;;;;6350649;22;20482;-85
2022/03/02 00:37:51;;;;;;;16.57;10.47;;;3.90;99.90;;;;;;6353105;22;20162;-86
2022/03/02 00:40:17;;;;;;;18.27;10.73;;;3.80;99.90;;;;;;6354271;22;20561;-85
2022/03/02 00:42:44;;;;;;;16.63;10.67;;;3.70;99.90;;;;;;6353996;22;20182;-85
2022/03/02 00:45:10;;;;;;;20.63;10.83;;;3.50;99.90;;;;;;6350523;22;20161;-84
2022/03/02 00:47:36;;;;;;;18.23;11.50;;;3.50;99.90;;;;;;6352954;22;20187;-84
2022/03/02 00:50:03;;;;;;;18.77;10.90;;;3.50;99.90;;;;;;6350315;22;20153;-84
2022/03/02 00:52:29;;;;;;;18.80;11.27;;;3.30;99.90;;;;;;6349587;22;20223;-85
2022/03/02 00:54:55;;;;;;;18.17;12.17;;;4.00;99.90;;;;;;6350549;22;20153;-84
2022/03/02 00:57:21;;;;;;;19.27;11.57;;;3.20;99.90;;;;;;6350657;22;20168;-85
2022/03/02 00:59:46;;;;;;;21.47;12.40;;;3.20;99.90;;;;;;6350091;22;20220;-85
2022/03/02 01:02:12;;;;;;;19.93;12.37;;;3.10;99.90;;;;;;6349643;22;20188;-84
2022/03/02 01:04:38;;;;;;;17.97;11.97;;;3.00;99.90;;;;;;6347838;22;20161;-85
2022/03/02 01:07:04;;;;;;;21.27;12.40;;;2.90;99.90;;;;;;6349951;22;20161;-86
2022/03/02 01:09:29;;;;;;;18.73;11.27;;;3.00;99.90;;;;;;6347454;22;20156;-84
2022/03/02 01:11:56;;;;;;;24.27;13.17;;;2.90;99.90;;;;;;6346696;22;20159;-85
2022/03/02 01:14:22;;;;;;;20.70;11.70;;;2.90;99.90;;;;;;6346352;22;20164;-84
2022/03/02 01:16:48;;;;;;;25.63;12.57;;;2.70;99.90;;;;;;6340047;22;20591;-85
2022/03/02 01:19:13;;;;;;;18.07;11.10;;;2.70;99.90;;;;;;6339591;22;20158;-86
2022/03/02 01:21:39;;;;;;;20.47;11.63;;;2.70;99.90;;;;;;6339108;22;20157;-87
2022/03/02 01:24:05;;;;;;;17.73;11.60;;;2.60;99.90;;;;;;6339694;22;20239;-86
2022/03/02 01:26:31;;;;;;;16.47;10.77;;;2.60;99.90;;;;;;6338972;22;20479;-84
2022/03/02 01:28:57;;;;;;;23.40;12.00;;;2.60;99.90;;;;;;6340702;22;20607;-87
2022/03/02 01:31:24;;;;;;;18.90;11.90;;;2.50;99.90;;;;;;6339272;22;20157;-87
2022/03/02 01:33:51;;;;;;;21.13;11.77;;;2.50;99.90;;;;;;6338683;22;20193;-87
2022/03/02 01:36:18;;;;;;;18.23;11.20;;;2.50;99.90;;;;;;6339081;22;20153;-86
2022/03/02 01:38:43;;;;;;;17.57;10.93;;;2.40;99.90;;;;;;6340821;22;20278;-86
2022/03/02 01:41:11;;;;;;;21.57;11.87;;;2.40;99.90;;;;;;6338211;22;20157;-86
2022/03/02 01:43:37;;;;;;;20.63;12.07;;;2.30;99.90;;;;;;6338468;22;20181;-85
2022/03/02 01:46:03;;;;;;;20.10;11.50;;;2.30;99.90;;;;;;6338607;22;20171;-85
2022/03/02 01:48:28;;;;;;;20.07;11.43;;;2.30;99.90;;;;;;6341455;22;20181;-89
2022/03/02 01:50:54;;;;;;;21.30;11.03;;;2.30;99.90;;;;;;6340146;22;20169;-85
2022/03/02 01:53:19;;;;;;;20.33;10.83;;;2.30;99.90;;;;;;6339309;22;20173;-85
2022/03/02 01:55:45;;;;;;;18.87;10.93;;;3.30;99.90;;;;;;6339270;22;20606;-85
2022/03/02 01:58:11;;;;;;;15.90;10.17;;;2.30;99.90;;;;;;6338034;22;20157;-85
2022/03/02 02:00:36;;;;;;;18.00;10.43;;;2.20;99.90;;;;;;6337639;22;20185;-84
2022/03/02 02:03:02;;;;;;;19.33;10.60;;;2.20;99.90;;;;;;6337905;22;20688;-85
2022/03/02 02:05:28;;;;;;;22.37;10.40;;;2.20;99.90;;;;;;6337704;22;20158;-85
2022/03/02 02:07:53;;;;;;;17.80;10.43;;;2.20;99.90;;;;;;6337669;22;20517;-86
2022/03/02 02:10:19;;;;;;;19.93;10.77;;;2.10;99.90;;;;;;6338105;22;20626;-85
2022/03/02 02:12:45;;;;;;;17.50;10.10;;;2.10;99.90;;;;;;6339657;22;20566;-85
2022/03/02 02:15:11;;;;;;;17.30;10.43;;;2.00;99.90;;;;;;6338202;22;20236;-86
2022/03/02 02:17:37;;;;;;;21.63;10.93;;;1.90;99.90;;;;;;6337636;22;20157;-85
2022/03/02 02:20:06;;;;;;;17.33;9.67;;;2.70;99.90;;;;;;6339517;22;20161;-86
2022/03/02 02:22:36;;;;;;;20.33;10.67;;;1.80;99.90;;;;;;6339713;22;20577;-85
2022/03/02 02:25:02;;;;;;;16.27;9.47;;;1.80;99.90;;;;;;6339779;22;20154;-85
2022/03/02 02:27:28;;;;;;;17.73;10.10;;;1.80;99.90;;;;;;6341266;22;20558;-85
2022/03/02 02:29:55;;;;;;;17.73;10.17;;;1.70;99.90;;;;;;6339155;22;20271;-86
2022/03/02 02:32:20;;;;;;;22.30;9.67;;;1.70;99.90;;;;;;6339484;22;20529;-86
2022/03/02 02:34:46;;;;;;;15.77;9.93;;;1.70;99.90;;;;;;6339508;22;20235;-84
2022/03/02 02:37:13;;;;;;;17.37;9.63;;;1.50;99.90;;;;;;6339701;22;20244;-86
2022/03/02 02:39:38;;;;;;;18.90;10.50;;;1.60;99.90;;;;;;6339258;22;20505;-85
2022/03/02 02:42:06;;;;;;;16.20;9.63;;;1.60;99.90;;;;;;6339682;22;20201;-86
2022/03/02 02:44:34;;;;;;;21.23;10.53;;;1.60;99.90;;;;;;6339589;22;20173;-85
2022/03/02 02:47:00;;;;;;;18.63;9.70;;;1.60;99.90;;;;;;6339295;22;20160;-84
2022/03/02 02:49:26;;;;;;;15.17;9.53;;;1.60;99.90;;;;;;6339257;22;20234;-86
2022/03/02 02:51:53;;;;;;;16.67;10.40;;;1.60;99.90;;;;;;6339257;22;20184;-85
2022/03/02 02:54:20;;;;;;;15.30;9.30;;;1.60;99.90;;;;;;6341165;22;20153;-85
2022/03/02 02:56:46;;;;;;;14.60;8.90;;;1.60;99.90;;;;;;6341064;22;20192;-87
2022/03/02 02:59:11;;;;;;;17.73;9.43;;;1.60;99.90;;;;;;6339538;22;20169;-83
2022/03/02 03:01:37;;;;;;;17.53;9.20;;;1.60;99.90;;;;;;6340788;22;20156;-85
2022/03/02 03:04:03;;;;;;;20.80;9.77;;;1.70;99.90;;;;;;6339407;22;20172;-83
2022/03/02 03:06:29;;;;;;;16.20;8.63;;;1.60;99.90;;;;;;6339435;22;20159;-85
2022/03/02 03:08:55;;;;;;;15.33;8.73;;;1.60;99.90;;;;;;6339085;22;20673;-85
2022/03/02 03:11:21;;;;;;;16.73;9.33;;;1.60;99.90;;;;;;6339690;22;20214;-83
2022/03/02 03:13:47;;;;;;;15.30;9.07;;;1.50;99.90;;;;;;6339460;22;20613;-83
2022/03/02 03:16:12;;;;;;;13.50;8.83;;;1.50;99.90;;;;;;6339254;22;20172;-83
2022/03/02 03:18:38;;;;;;;14.50;8.57;;;1.40;99.90;;;;;;6339400;22;20496;-86
2022/03/02 03:21:03;;;;;;;14.77;8.80;;;1.30;99.90;;;;;;6339308;22;20165;-83
2022/03/02 03:23:29;;;;;;;15.63;8.80;;;1.30;99.90;;;;;;6339160;22;20184;-85
2022/03/02 03:25:55;;;;;;;13.33;9.03;;;1.20;99.90;;;;;;6339314;22;20160;-86
2022/03/02 03:28:21;;;;;;;14.83;8.73;;;1.20;99.90;;;;;;6339060;22;20616;-85
2022/03/02 03:30:46;;;;;;;13.73;8.90;;;1.20;99.90;;;;;;6339203;22;20156;-86
2022/03/02 03:33:12;;;;;;;13.90;8.57;;;1.20;99.90;;;;;;6340149;22;20187;-86
2022/03/02 03:35:37;;;;;;;16.80;8.70;;;1.20;99.90;;;;;;6341041;22;20207;-86
2022/03/02 03:38:03;;;;;;;13.63;8.43;;;1.20;99.90;;;;;;6340725;22;20156;-86
2022/03/02 03:40:29;;;;;;;14.90;8.17;;;1.10;99.90;;;;;;6338977;22;20175;-85
2022/03/02 03:42:55;;;;;;;18.93;9.87;;;1.10;99.90;;;;;;6339649;22;20682;-86
2022/03/02 03:45:21;;;;;;;18.87;9.37;;;1.10;99.90;;;;;;6340284;22;20160;-86
2022/03/02 03:47:47;;;;;;;17.57;9.20;;;1.10;99.90;;;;;;6344223;22;20184;-85
2022/03/02 03:50:13;;;;;;;16.80;9.27;;;1.10;99.90;;;;;;6338897;22;20164;-87
2022/03/02 03:52:39;;;;;;;17.27;8.33;;;1.10;99.90;;;;;;6340065;22;20194;-85
2022/03/02 03:55:07;;;;;;;16.80;8.90;;;1.10;99.90;;;;;;6340159;22;20628;-85
2022/03/02 03:57:32;;;;;;;16.47;8.83;;;1.10;99.90;;;;;;6340355;22;20248;-85
2022/03/02 03:59:58;;;;;;;16.20;9.03;;;1.20;99.90;;;;;;6340367;22;20658;-85
2022/03/02 04:02:23;;;;;;;16.00;8.70;;;1.20;99.90;;;;;;6338459;22;20180;-85
2022/03/02 04:04:49;;;;;;;16.23;8.80;;;1.20;99.90;;;;;;6340096;22;20594;-85
2022/03/02 04:07:15;;;;;;;16.30;9.17;;;1.20;99.90;;;;;;6340042;22;20186;-86
2022/03/02 04:09:40;;;;;;;16.13;9.00;;;1.20;99.90;;;;;;6338521;22;20161;-83
2022/03/02 04:12:07;;;;;;;16.07;9.10;;;1.20;99.90;;;;;;6338178;22;20187;-85
2022/03/02 04:14:32;;;;;;;15.83;9.30;;;1.20;99.90;;;;;;6339081;22;20496;-85
2022/03/02 04:16:58;;;;;;;14.10;8.83;;;1.20;99.90;;;;;;6338651;22;20156;-86
2022/03/02 04:19:23;;;;;;;15.93;9.70;;;1.20;99.90;;;;;;6338612;22;20615;-85
2022/03/02 04:21:49;;;;;;;18.53;9.33;;;1.20;99.90;;;;;;6338422;22;20225;-86
2022/03/02 04:24:15;;;;;;;17.73;8.97;;;1.20;99.90;;;;;;6338708;22;20162;-85
2022/03/02 04:26:40;;;;;;;17.20;9.00;;;1.20;99.90;;;;;;6338720;22;20530;-85
2022/03/02 04:29:06;;;;;;;13.20;8.30;;;1.30;99.90;;;;;;6338675;22;20222;-85
2022/03/02 04:31:31;;;;;;;15.20;8.73;;;1.20;99.90;;;;;;6340097;22;20179;-85
2022/03/02 04:33:57;;;;;;;20.03;9.67;;;1.20;99.90;;;;;;6338432;22;20180;-86
2022/03/02 04:36:23;;;;;;;21.00;9.73;;;1.20;99.90;;;;;;6338636;22;20160;-84
2022/03/02 04:38:48;;;;;;;18.10;10.23;;;1.30;99.90;;;;;;6338600;22;20674;-85
2022/03/02 04:41:14;;;;;;;15.67;9.17;;;1.40;99.90;;;;;;6338633;22;20560;-86
2022/03/02 04:43:40;;;;;;;16.33;9.33;;;1.30;99.90;;;;;;6338494;22;20175;-86
2022/03/02 04:46:05;;;;;;;17.80;10.00;;;1.40;99.90;;;;;;6338577;22;20213;-85
2022/03/02 04:48:31;;;;;;;16.10;10.23;;;1.30;99.90;;;;;;6338427;22;20187;-86
2022/03/02 04:50:57;;;;;;;19.10;10.87;;;1.40;99.90;;;;;;6340164;22;20184;-86
2022/03/02 04:53:23;;;;;;;15.37;10.00;;;1.40;99.90;;;;;;6340023;22;20176;-84
2022/03/02 04:55:50;;;;;;;20.87;9.83;;;1.30;99.90;;;;;;6338679;22;20470;-84
2022/03/02 04:58:17;;;;;;;16.17;9.07;;;1.40;99.90;;;;;;6338320;22;20391;-84
2022/03/02 05:00:42;;;;;;;16.13;8.90;;;1.40;99.90;;;;;;6338496;22;20159;-86
2022/03/02 05:03:08;;;;;;;15.73;9.40;;;1.40;99.90;;;;;;6338499;22;20278;-85
2022/03/02 05:05:35;;;;;;;17.40;9.63;;;1.40;99.90;;;;;;6339299;22;20168;-85
2022/03/02 05:08:01;;;;;;;16.40;9.53;;;1.40;99.90;;;;;;6338483;22;20521;-83
2022/03/02 05:10:29;;;;;;;16.73;9.23;;;1.30;99.90;;;;;;6338365;22;20166;-85
2022/03/02 05:12:55;;;;;;;13.60;8.93;;;1.30;99.90;;;;;;6312962;22;20557;-85
2022/03/02 05:15:21;;;;;;;17.27;9.60;;;1.30;99.90;;;;;;6338488;22;20391;-85
2022/03/02 05:17:47;;;;;;;16.90;9.27;;;1.30;99.90;;;;;;6340309;22;20829;-87
2022/03/02 05:20:15;;;;;;;15.10;9.80;;;1.30;99.90;;;;;;6340443;22;20530;-84
2022/03/02 05:22:40;;;;;;;14.13;8.83;;;1.30;99.90;;;;;;6340127;22;20182;-86
2022/03/02 05:25:08;;;;;;;15.37;8.83;;;1.30;99.90;;;;;;6338871;22;20715;-86
2022/03/02 05:27:34;;;;;;;20.80;8.80;;;1.30;99.90;;;;;;6339289;22;20257;-85
2022/03/02 05:30:00;;;;;;;17.20;9.07;;;1.30;99.90;;;;;;6340236;22;20654;-84
2022/03/02 05:32:25;;;;;;;18.10;9.50;;;1.30;99.90;;;;;;6338449;22;20915;-87
2022/03/02 05:34:51;;;;;;;15.17;9.53;;;1.30;99.90;;;;;;6340526;22;20229;-84
2022/03/02 05:37:16;;;;;;;16.83;9.17;;;1.30;99.90;;;;;;6338719;22;20590;-88
2022/03/02 05:39:42;;;;;;;18.67;9.53;;;1.30;99.90;;;;;;6338941;22;20159;-86
2022/03/02 05:42:08;;;;;;;15.97;9.17;;;3.00;99.90;;;;;;6338103;22;20180;-86
2022/03/02 05:44:34;;;;;;;14.70;9.53;;;1.30;99.90;;;;;;6342251;22;20390;-88
2022/03/02 05:46:59;;;;;;;15.17;9.07;;;1.30;99.90;;;;;;6339787;22;20160;-86
2022/03/02 05:49:25;;;;;;;16.27;9.30;;;1.30;99.90;;;;;;6338242;22;20157;-85
2022/03/02 05:51:51;;;;;;;18.93;9.40;;;1.30;99.90;;;;;;6339690;22;20192;-85
2022/03/02 05:54:17;;;;;;;16.87;9.50;;;1.30;99.90;;;;;;6338083;22;20179;-85
2022/03/02 05:56:42;;;;;;;16.47;10.67;;;1.20;99.90;;;;;;6339317;22;20597;-85
2022/03/02 05:59:10;;;;;;;16.47;9.73;;;1.30;99.90;;;;;;6339772;22;20159;-85
2022/03/02 06:01:37;;;;;;;19.23;9.87;;;1.30;99.90;;;;;;6341442;22;20230;-85
2022/03/02 06:04:05;;;;;;;16.23;9.73;;;1.30;99.90;;;;;;6339746;22;20300;-85
2022/03/02 06:06:32;;;;;;;21.37;9.47;;;1.30;99.90;;;;;;6341909;22;20589;-85
2022/03/02 06:09:00;;;;;;;18.67;10.13;;;1.30;99.90;;;;;;6313555;22;20434;-84
2022/03/02 06:11:26;;;;;;;14.67;9.50;;;1.30;99.90;;;;;;6339549;22;20156;-85
2022/03/02 06:13:52;;;;;;;16.57;10.07;;;1.30;99.90;;;;;;6340976;22;20883;-85
2022/03/02 06:16:18;;;;;;;13.63;9.17;;;1.20;99.90;;;;;;6340707;22;20190;-86
2022/03/02 06:18:44;;;;;;;15.50;10.07;;;1.30;99.90;;;;;;6340615;22;20503;-84
2022/03/02 06:21:14;;;;;;;19.10;11.50;;;1.30;99.90;;;;;;6339876;22;20163;-85
2022/03/02 06:23:40;;;;;;;15.07;9.80;;;1.20;99.90;;;;;;6339689;22;20205;-85
2022/03/02 06:26:07;;;;;;;19.20;10.80;;;1.30;99.90;;;;;;6341115;22;20149;-86
2022/03/02 06:28:33;;;;;;;17.10;10.37;;;1.30;99.90;;;;;;6339399;22;20228;-87
2022/03/02 06:30:58;;;;;;;18.60;9.67;;;1.30;99.90;;;;;;6339717;22;20378;-87
2022/03/02 06:33:24;;;;;;;13.83;9.30;;;1.20;99.90;;;;;;6341779;22;20245;-84
2022/03/02 06:35:50;;;;;;;18.93;9.63;;;1.30;99.90;;;;;;6339708;22;20188;-86
2022/03/02 06:38:16;;;;;;;16.93;10.17;;;1.30;99.90;;;;;;6340390;22;20181;-87
2022/03/02 06:41:11;;;;;;;17.87;10.00;;;1.40;99.90;;;;;;6340317;22;20166;-83
2022/03/02 06:43:42;;;;;;;21.03;9.27;;;1.40;99.90;;;;;;6340056;22;20492;-86
2022/03/02 06:46:16;;;;;;;17.17;9.27;;;1.40;99.90;;;;;;6339722;22;20163;-87
2022/03/02 06:48:55;;;;;;;17.93;9.70;;;1.40;99.90;;;;;;6339934;22;20427;-86
2022/03/02 06:51:22;;;;;;;18.73;10.47;;;1.50;99.90;;;;;;6341196;22;20731;-85
2022/03/02 06:53:49;;;;;;;17.60;10.50;;;1.50;99.90;;;;;;6339265;22;20401;-87
2022/03/02 06:56:20;;;;;;;17.70;10.93;;;1.50;99.90;;;;;;6339551;22;20408;-86
2022/03/02 06:58:51;;;;;;;20.70;11.40;;;1.60;99.90;;;;;;6339439;22;20875;-87
2022/03/02 07:01:25;;;;;;;18.37;10.53;;;1.60;99.90;;;;;;6341340;22;20909;-86
2022/03/02 07:03:54;;;;;;;19.23;11.80;;;1.60;99.90;;;;;;6339772;22;20400;-86
2022/03/02 07:06:20;;;;;;;17.17;11.97;;;1.70;99.90;;;;;;6341466;22;20383;-86
2022/03/02 07:08:48;;;;;;;18.87;11.30;;;1.70;99.90;;;;;;6339421;22;20533;-85
2022/03/02 07:11:16;;;;;;;17.60;10.53;;;1.80;99.90;;;;;;6341493;22;20456;-87
2022/03/02 07:13:44;;;;;;;18.93;10.07;;;1.80;99.90;;;;;;6339401;22;20409;-84
2022/03/02 07:16:13;;;;;;;17.10;10.00;;;1.80;99.90;;;;;;6339573;22;20388;-86
2022/03/02 07:18:40;;;;;;;16.13;10.13;;;1.90;99.90;;;;;;6339507;22;20726;-85
2022/03/02 07:21:15;;;;;;;18.17;10.53;;;1.90;99.90;;;;;;6339524;22;20386;-86
2022/03/02 07:23:55;;;;;;;17.57;9.50;;;1.90;99.90;;;;;;6341283;22;20446;-87
2022/03/02 07:26:23;;;;;;;17.13;9.47;;;2.00;99.90;;;;;;6339542;22;20397;-85
2022/03/02 07:28:49;;;;;;;17.07;10.17;;;1.90;99.90;;;;;;6324273;22;20242;-46
2022/03/02 07:31:17;;;;;;;17.40;10.00;;;2.00;99.90;;;;;;6307248;22;20495;-44
2022/03/02 07:33:45;;;;;;;14.17;9.93;;;2.00;99.90;;;;;;6281712;22;20393;-44
2022/03/02 07:36:12;;;;;;;16.17;9.80;;;2.10;99.90;;;;;;6307079;22;20205;-45
2022/03/02 07:38:39;;;;;;;15.33;9.27;;;2.10;99.90;;;;;;6337705;22;20419;-45
2022/03/02 07:41:09;;;;;;;15.20;9.50;;;2.20;99.90;;;;;;6338378;22;20491;-44
2022/03/02 07:43:38;;;;;;;15.03;9.03;;;2.20;99.90;;;;;;6338152;22;20390;-46
2022/03/02 07:46:09;;;;;;;14.90;9.53;;;2.30;99.90;;;;;;6340169;22;20216;-46
2022/03/02 07:48:37;;;;;;;18.57;10.77;;;2.30;99.90;;;;;;6339724;22;20338;-45
2022/03/02 07:51:08;;;;;;;21.23;10.70;;;2.40;99.90;;;;;;6339897;22;20148;-46
2022/03/02 07:53:41;;;;;;;17.00;9.73;;;2.50;99.90;;;;;;6338256;22;20375;-44
2022/03/02 07:56:08;;;;;;;16.40;9.23;;;2.50;99.90;;;;;;6342384;22;20147;-48
2022/03/02 07:58:38;;;;;;;16.90;10.33;;;2.60;99.90;;;;;;6339763;22;20255;-46
2022/03/02 08:01:04;;;;;;;17.67;9.90;;;2.70;99.90;;;;;;6341353;22;20243;-48
2022/03/02 08:03:34;;;;;;;15.97;8.53;;;2.80;99.90;;;;;;6339215;22;20160;-47
2022/03/02 08:06:00;;;;;;;17.67;9.77;;;3.00;99.90;;;;;;6338995;22;20243;-49
2022/03/02 08:08:26;;;;;;;15.57;9.37;;;3.10;99.90;;;;;;6338015;22;20223;-47
2022/03/02 08:10:55;;;;;;;16.57;9.63;;;3.20;99.90;;;;;;6339630;22;20461;-48
2022/03/02 08:13:23;;;;;;;15.57;9.00;;;3.30;99.90;;;;;;6338035;22;20161;-49
2022/03/02 08:15:50;;;;;;;18.03;9.23;;;3.50;99.90;;;;;;6339889;22;20148;-48
2022/03/02 08:18:15;;;;;;;18.47;8.70;;;3.60;99.90;;;;;;6337625;22;20180;-50
2022/03/02 08:20:48;;;;;;;21.13;9.67;;;3.70;99.90;;;;;;6339860;22;20200;-48
2022/03/02 08:23:13;;;;;;;19.83;9.03;;;3.80;99.90;;;;;;6339935;22;20220;-49
2022/03/02 08:25:39;;;;;;;18.63;10.67;;;3.90;99.90;;;;;;6339578;22;20544;-49
2022/03/02 08:28:11;;;;;;;15.03;9.57;;;4.00;99.90;;;;;;6339438;22;20188;-47
2022/03/02 08:30:38;;;;;;;14.33;9.73;;;4.10;99.90;;;;;;6339531;22;20592;-44
2022/03/02 08:33:04;;;;;;;19.77;9.80;;;4.20;99.90;;;;;;6339819;22;20216;-44
2022/03/02 08:35:34;;;;;;;14.20;8.63;;;4.30;99.90;;;;;;6337866;22;20184;-45
2022/03/02 08:38:01;;;;;;;18.73;9.23;;;4.40;99.90;;;;;;6338038;22;20177;-48
2022/03/02 08:40:28;;;;;;;16.60;9.40;;;4.50;99.90;;;;;;6339806;22;20211;-49
2022/03/02 08:42:57;;;;;;;13.67;9.07;;;4.50;99.90;;;;;;6339778;22;20605;-50
2022/03/02 08:45:23;;;;;;;14.87;7.77;;;4.70;99.90;;;;;;6339498;22;20156;-49
2022/03/02 08:47:49;;;;;;;18.73;9.73;;;4.80;99.90;;;;;;6337983;22;20264;-48
2022/03/02 08:50:15;;;;;;;14.00;7.90;;;4.90;99.90;;;;;;6339385;22;20226;-49
2022/03/02 08:52:41;;;;;;;18.70;8.73;;;5.00;99.90;;;;;;6337691;22;20157;-49
2022/03/02 08:55:10;;;;;;;14.80;9.33;;;5.10;99.90;;;;;;6339117;22;20255;-48
2022/03/02 08:57:43;;;;;;;11.70;7.30;;;5.30;99.90;;;;;;6337642;22;20181;-50
2022/03/02 09:00:11;;;;;;;13.57;8.73;;;5.40;99.90;;;;;;6338167;22;20162;-46
2022/03/02 09:02:38;;;;;;;12.10;7.90;;;5.50;99.90;;;;;;6339705;22;20161;-45
2022/03/02 09:05:05;;;;;;;14.90;8.83;;;5.60;99.90;;;;;;6340034;22;20187;-45
2022/03/02 09:07:31;;;;;;;13.90;9.23;;;5.70;99.90;;;;;;6339624;22;20223;-47
2022/03/02 09:09:59;;;;;;;15.47;8.57;;;5.80;99.90;;;;;;6339367;22;20153;-46
2022/03/02 09:12:25;;;;;;;18.97;9.97;;;5.90;99.90;;;;;;6339267;22;20177;-47
2022/03/02 09:14:51;;;;;;;6.83;4.60;;;6.00;99.90;;;;;;6338005;22;20173;-45
2022/03/02 09:17:18;;;;;;;13.10;8.83;;;6.10;99.90;;;;;;6337183;22;20509;-48
2022/03/02 09:19:45;;;;;;;14.40;8.87;;;6.20;99.90;;;;;;6337410;22;20484;-45
2022/03/02 09:22:10;;;;;;;26.10;10.20;;;6.30;99.90;;;;;;6337849;22;20228;-46
2022/03/02 09:24:38;;;;;;;13.27;9.20;;;6.30;99.90;;;;;;6339699;22;20576;-46
2022/03/02 09:27:08;;;;;;;13.17;9.07;;;6.40;99.90;;;;;;6339775;22;20198;-47
2022/03/02 09:29:36;;;;;;;17.37;9.50;;;6.60;99.90;;;;;;6340147;22;20293;-45
2022/03/02 09:32:03;;;;;;;13.47;9.00;;;6.70;99.90;;;;;;6339651;22;20148;-45
2022/03/02 09:34:30;;;;;;;14.77;9.30;;;6.80;99.90;;;;;;6339425;22;20147;-43
2022/03/02 09:36:57;;;;;;;17.50;9.87;;;6.90;99.90;;;;;;6339662;22;20173;-45
2022/03/02 09:39:24;;;;;;;17.20;10.30;;;6.90;99.90;;;;;;6337929;22;20163;-46
2022/03/02 09:42:03;;;;;;;14.97;10.40;;;7.00;99.90;;;;;;6339054;22;20153;-45
2022/03/02 09:44:44;;;;;;;18.23;9.63;;;7.10;99.90;;;;;;6339397;22;20160;-45
2022/03/02 09:47:21;;;;;;;15.17;10.20;;;7.20;99.90;;;;;;6339355;22;20180;-45
2022/03/02 09:49:57;;;;;;;17.17;9.20;;;7.30;99.90;;;;;;6339344;22;20142;-44
2022/03/02 09:52:24;;;;;;;13.13;9.23;;;7.40;99.90;;;;;;6339856;22;20166;-43
2022/03/02 09:54:57;;;;;;;14.00;8.80;;;7.50;99.90;;;;;;6340111;22;20154;-44
2022/03/02 09:57:23;;;;;;;14.73;10.37;;;7.60;99.90;;;;;;6337277;22;20201;-47
2022/03/02 09:59:56;;;;;;;12.57;9.13;;;7.70;99.90;;;;;;6339523;22;20146;-49
2022/03/02 10:02:38;;;;;;;17.33;9.60;;;7.70;99.90;;;;;;6337794;22;20144;-47
2022/03/02 10:05:08;;;;;;;18.77;9.83;;;7.80;99.90;;;;;;6339017;22;20455;-49
2022/03/02 10:07:37;;;;;;;13.63;9.33;;;7.90;99.90;;;;;;6338863;22;20177;-48
2022/03/02 10:10:11;;;;;;;26.90;9.80;;;8.00;99.90;;;;;;6337495;22;20197;-49
2022/03/02 10:12:37;;;;;;;12.37;9.07;;;8.10;99.90;;;;;;6339159;22;20235;-48
2022/03/02 10:15:10;;;;;;;15.03;10.03;;;8.20;99.90;;;;;;6338991;22;20150;-48
2022/03/02 10:17:39;;;;;;;15.90;9.83;;;8.30;99.90;;;;;;6338764;22;20250;-49
2022/03/02 10:20:10;;;;;;;15.43;9.00;;;8.40;99.90;;;;;;6337213;22;20581;-49
2022/03/02 10:22:54;;;;;;;14.17;9.13;;;8.50;99.90;;;;;;6337267;22;20513;-49
2022/03/02 10:25:36;;;;;;;14.40;8.43;;;8.60;99.90;;;;;;6339002;22;20141;-48
2022/03/02 10:28:06;;;;;;;14.73;8.77;;;8.70;99.90;;;;;;6338881;22;20185;-51
2022/03/02 10:30:36;;;;;;;12.47;8.77;;;8.80;99.90;;;;;;6338689;22;20507;-49
2022/03/02 10:33:22;;;;;;;18.93;9.63;;;8.90;99.90;;;;;;6338948;22;20148;-49
2022/03/02 10:35:59;;;;;;;10.90;8.37;;;9.00;99.90;;;;;;6337200;22;20168;-48
2022/03/02 10:38:47;;;;;;;12.73;8.37;;;9.10;99.90;;;;;;6337186;22;20215;-50
2022/03/02 10:41:14;;;;;;;11.40;8.47;;;9.20;99.90;;;;;;6339177;22;20142;-47
2022/03/02 10:44:03;;;;;;;12.73;8.67;;;9.30;99.90;;;;;;6349451;22;20202;-46
2022/03/02 10:46:29;;;;;;;11.93;8.47;;;9.40;99.90;;;;;;6348395;22;20212;-44
2022/03/02 10:49:03;;;;;;;13.43;8.50;;;9.50;99.90;;;;;;6344138;22;20242;-47
2022/03/02 10:51:32;;;;;;;12.33;8.00;;;9.60;99.90;;;;;;6345366;22;20158;-46
2022/03/02 10:54:11;;;;;;;13.90;9.10;;;9.70;99.90;;;;;;6350043;22;20163;-46
2022/03/02 10:56:55;;;;;;;14.27;8.97;;;9.90;99.90;;;;;;6347630;22;20164;-45
2022/03/02 10:59:25;;;;;;;11.50;8.83;;;9.90;99.90;;;;;;6346441;22;20152;-47
2022/03/02 11:02:37;;;;;;;14.80;8.90;;;10.00;99.90;;;;;;6348348;22;20483;-47
2022/03/02 11:05:03;;;;;;;14.17;8.87;;;10.10;99.90;;;;;;6348220;22;20149;-49
2022/03/02 11:07:28;;;;;;;15.97;9.27;;;10.10;99.90;;;;;;6345665;22;20185;-46
2022/03/02 11:09:55;;;;;;;14.83;8.97;;;10.20;99.90;;;;;;6339233;22;20153;-45
2022/03/02 11:12:21;;;;;;;12.53;8.73;;;10.30;99.90;;;;;;6338584;22;20153;-47
2022/03/02 11:15:07;;;;;;;13.93;9.47;;;10.30;99.90;;;;;;6312816;22;20157;-46
2022/03/02 11:17:33;;;;;;;10.87;7.50;;;10.30;99.90;;;;;;6338555;22;20174;-44
2022/03/02 11:20:05;;;;;;;14.00;7.93;;;10.30;99.90;;;;;;6340095;22;20157;-45
2022/03/02 11:22:31;;;;;;;13.37;8.43;;;10.30;99.90;;;;;;6338606;22;20190;-45
2022/03/02 11:24:59;;;;;;;13.97;8.07;;;10.30;99.90;;;;;;6338545;22;20162;-46
2022/03/02 11:27:30;;;;;;;10.50;7.30;;;10.40;99.90;;;;;;6339961;22;20173;-45
2022/03/02 11:30:14;;;;;;;11.20;7.37;;;10.50;99.90;;;;;;6338362;22;20172;-45
2022/03/02 11:32:46;;;;;;;14.23;8.47;;;10.60;99.90;;;;;;6338598;22;20181;-45
2022/03/02 11:35:14;;;;;;;16.67;7.40;;;10.60;99.90;;;;;;6340107;22;20636;-46
2022/03/02 11:37:42;;;;;;;12.43;8.43;;;10.60;99.90;;;;;;6338404;22;20212;-46
2022/03/02 11:40:11;;;;;;;13.17;8.10;;;10.70;99.90;;;;;;6340420;22;20183;-47
2022/03/02 11:42:38;;;;;;;12.50;7.43;;;10.80;99.90;;;;;;6339142;22;20167;-47
2022/03/02 11:45:06;;;;;;;12.30;7.90;;;10.90;99.90;;;;;;6341245;22;20157;-48
2022/03/02 11:47:45;;;;;;;10.60;7.47;;;11.10;99.90;;;;;;6340666;22;20178;-47
2022/03/02 11:50:12;;;;;;;11.03;7.77;;;11.20;99.90;;;;;;6339199;22;20195;-47
2022/03/02 11:52:46;;;;;;;10.60;7.73;;;11.20;99.90;;;;;;6341315;22;20488;-47
2022/03/02 11:55:16;;;;;;;13.53;8.77;;;11.40;99.90;;;;;;6343317;22;20155;-46
2022/03/02 11:57:48;;;;;;;11.37;8.40;;;11.50;99.90;;;;;;6340438;22;20171;-45
2022/03/02 12:00:25;;;;;;;13.87;8.13;;;11.40;99.90;;;;;;6338316;22;20483;-51
2022/03/02 12:02:53;;;;;;;9.07;7.97;;;11.50;99.90;;;;;;6339819;22;20652;-49
2022/03/02 12:05:21;;;;;;;12.20;8.13;;;11.60;99.90;;;;;;6338130;22;20542;-49
2022/03/02 12:07:52;;;;;;;12.63;8.80;;;11.70;99.90;;;;;;6339666;22;20634;-49
2022/03/02 12:10:23;;;;;;;18.90;8.60;;;11.80;99.90;;;;;;6312458;22;20223;-49
2022/03/02 12:12:50;;;;;;;10.70;7.40;;;11.80;99.90;;;;;;6339460;22;20212;-48
2022/03/02 12:15:17;;;;;;;10.63;8.20;;;11.90;99.90;;;;;;6339697;22;20153;-49
2022/03/02 12:17:43;;;;;;;11.73;8.23;;;11.90;99.90;;;;;;6339448;22;20197;-49
2022/03/02 12:20:16;;;;;;;8.97;7.33;;;12.00;99.90;;;;;;6339259;22;20160;-50
2022/03/02 12:22:49;;;;;;;12.13;7.30;;;12.10;99.90;;;;;;6339674;22;20142;-48
2022/03/02 12:25:18;;;;;;;9.53;7.23;;;12.10;99.90;;;;;;6311952;22;20177;-49
2022/03/02 12:28:04;;;;;;;9.27;7.13;;;12.10;99.90;;;;;;6337771;22;20231;-49
2022/03/02 12:30:35;;;;;;;8.30;6.90;;;12.20;99.90;;;;;;6338471;22;20169;-47
2022/03/02 12:33:02;;;;;;;7.60;6.80;;;12.30;99.90;;;;;;6339369;22;20463;-48
2022/03/02 12:35:28;;;;;;;9.57;6.83;;;12.30;99.90;;;;;;6337763;22;20166;-48
2022/03/02 12:38:09;;;;;;;7.10;6.30;;;12.40;99.90;;;;;;6339459;22;20513;-50
2022/03/02 12:40:40;;;;;;;11.23;6.70;;;12.40;99.90;;;;;;6339607;22;20141;-50
2022/03/02 12:43:14;;;;;;;9.03;6.57;;;12.40;99.90;;;;;;6337815;22;20184;-47
2022/03/02 12:45:42;;;;;;;7.37;5.97;;;12.50;99.90;;;;;;6337791;22;20156;-48
2022/03/02 12:48:09;;;;;;;8.40;6.37;;;12.60;99.90;;;;;;6339277;22;20260;-47